sensor_id;sensor_type;location;lat;lon;timestamp;temperature;humidity
26821;DHT22;37186;51.394;5.454;2022-07-24T00:01:35;23.20;61.20
26821;DHT22;37186;51.394;5.454;2022-07-24T00:04:35;23.10;61.20
26821;DHT22;37186;51.394;5.454;2022-07-24T00:07:36;23.10;61.30
26821;DHT22;37186;51.394;5.454;2022-07-24T00:10:37;23.10;61.30
26821;DHT22;37186;51.394;5.454;2022-07-24T00:13:37;23.00;61.10
26821;DHT22;37186;51.394;5.454;2022-07-24T00:16:38;23.00;61.20
26821;DHT22;37186;51.394;5.454;2022-07-24T00:19:39;22.90;61.20
26821;DHT22;37186;51.394;5.454;2022-07-24T00:22:39;22.90;61.30
26821;DHT22;37186;51.394;5.454;2022-07-24T00:25:40;22.90;61.30
26821;DHT22;37186;51.394;5.454;2022-07-24T00:28:40;22.90;61.40
26821;DHT22;37186;51.394;5.454;2022-07-24T00:31:41;22.80;61.40
26821;DHT22;37186;51.394;5.454;2022-07-24T00:34:41;22.80;61.40
26821;DHT22;37186;51.394;5.454;2022-07-24T00:37:42;22.80;61.50
26821;DHT22;37186;51.394;5.454;2022-07-24T00:40:43;22.70;61.40
26821;DHT22;37186;51.394;5.454;2022-07-24T00:44:07;22.70;61.50
26821;DHT22;37186;51.394;5.454;2022-07-24T00:47:07;22.70;61.60
26821;DHT22;37186;51.394;5.454;2022-07-24T00:50:08;22.60;61.60
26821;DHT22;37186;51.394;5.454;2022-07-24T00:53:09;22.60;61.50
26821;DHT22;37186;51.394;5.454;2022-07-24T00:56:10;22.60;61.70
26821;DHT22;37186;51.394;5.454;2022-07-24T00:59:13;22.50;61.60
26821;DHT22;37186;51.394;5.454;2022-07-24T01:02:13;22.50;61.60
26821;DHT22;37186;51.394;5.454;2022-07-24T01:05:14;22.50;61.60
26821;DHT22;37186;51.394;5.454;2022-07-24T01:08:14;22.50;61.70
26821;DHT22;37186;51.394;5.454;2022-07-24T01:11:15;22.40;61.70
26821;DHT22;37186;51.394;5.454;2022-07-24T01:14:16;22.40;61.80
26821;DHT22;37186;51.394;5.454;2022-07-24T01:17:17;22.40;61.80
26821;DHT22;37186;51.394;5.454;2022-07-24T01:20:18;22.40;61.90
26821;DHT22;37186;51.394;5.454;2022-07-24T01:23:18;22.30;61.80
26821;DHT22;37186;51.394;5.454;2022-07-24T01:26:19;22.30;61.80
26821;DHT22;37186;51.394;5.454;2022-07-24T01:29:19;22.30;61.80
26821;DHT22;37186;51.394;5.454;2022-07-24T01:32:20;22.20;61.90
26821;DHT22;37186;51.394;5.454;2022-07-24T01:35:20;22.20;61.90
26821;DHT22;37186;51.394;5.454;2022-07-24T01:38:21;22.20;62.10
26821;DHT22;37186;51.394;5.454;2022-07-24T01:41:21;22.20;61.80
26821;DHT22;37186;51.394;5.454;2022-07-24T01:44:22;22.20;62.00
26821;DHT22;37186;51.394;5.454;2022-07-24T01:47:23;22.10;61.80
26821;DHT22;37186;51.394;5.454;2022-07-24T01:50:24;22.10;61.90
26821;DHT22;37186;51.394;5.454;2022-07-24T01:53:24;22.10;62.00
26821;DHT22;37186;51.394;5.454;2022-07-24T01:56:25;22.00;62.00
26821;DHT22;37186;51.394;5.454;2022-07-24T01:59:25;22.00;62.10
26821;DHT22;37186;51.394;5.454;2022-07-24T02:02:27;21.90;62.10
26821;DHT22;37186;51.394;5.454;2022-07-24T02:05:27;21.90;62.20
26821;DHT22;37186;51.394;5.454;2022-07-24T02:08:28;21.90;62.20
26821;DHT22;37186;51.394;5.454;2022-07-24T02:11:28;21.90;62.30
26821;DHT22;37186;51.394;5.454;2022-07-24T02:14:29;21.80;62.20
26821;DHT22;37186;51.394;5.454;2022-07-24T02:17:30;21.80;62.30
26821;DHT22;37186;51.394;5.454;2022-07-24T02:20:30;21.80;62.30
26821;DHT22;37186;51.394;5.454;2022-07-24T02:23:31;21.80;62.30
26821;DHT22;37186;51.394;5.454;2022-07-24T02:26:31;21.80;62.30
26821;DHT22;37186;51.394;5.454;2022-07-24T02:29:32;21.70;62.30
26821;DHT22;37186;51.394;5.454;2022-07-24T02:32:33;21.70;62.20
26821;DHT22;37186;51.394;5.454;2022-07-24T02:35:34;21.70;62.40
26821;DHT22;37186;51.394;5.454;2022-07-24T02:38:35;21.70;62.30
26821;DHT22;37186;51.394;5.454;2022-07-24T02:41:35;21.70;62.50
26821;DHT22;37186;51.394;5.454;2022-07-24T02:44:36;21.60;62.30
26821;DHT22;37186;51.394;5.454;2022-07-24T02:47:50;21.60;62.60
26821;DHT22;37186;51.394;5.454;2022-07-24T02:50:51;21.60;62.40
26821;DHT22;37186;51.394;5.454;2022-07-24T02:53:51;21.50;62.40
26821;DHT22;37186;51.394;5.454;2022-07-24T02:56:52;21.50;62.40
26821;DHT22;37186;51.394;5.454;2022-07-24T02:59:52;21.50;62.30
26821;DHT22;37186;51.394;5.454;2022-07-24T03:02:53;21.50;62.40
26821;DHT22;37186;51.394;5.454;2022-07-24T03:05:54;21.40;62.40
26821;DHT22;37186;51.394;5.454;2022-07-24T03:08:54;21.40;62.50
26821;DHT22;37186;51.394;5.454;2022-07-24T03:11:55;21.40;62.50
26821;DHT22;37186;51.394;5.454;2022-07-24T03:14:55;21.40;62.60
26821;DHT22;37186;51.394;5.454;2022-07-24T03:17:56;21.30;62.50
26821;DHT22;37186;51.394;5.454;2022-07-24T03:20:57;21.30;62.70
26821;DHT22;37186;51.394;5.454;2022-07-24T03:23:57;21.20;62.70
26821;DHT22;37186;51.394;5.454;2022-07-24T03:26:58;21.20;62.70
26821;DHT22;37186;51.394;5.454;2022-07-24T03:29:59;21.20;62.70
26821;DHT22;37186;51.394;5.454;2022-07-24T03:33:00;21.20;62.80
26821;DHT22;37186;51.394;5.454;2022-07-24T03:36:00;21.20;62.80
26821;DHT22;37186;51.394;5.454;2022-07-24T03:39:01;21.20;62.80
26821;DHT22;37186;51.394;5.454;2022-07-24T03:42:02;21.10;62.90
26821;DHT22;37186;51.394;5.454;2022-07-24T03:45:02;21.10;62.90
26821;DHT22;37186;51.394;5.454;2022-07-24T03:48:04;21.10;62.90
26821;DHT22;37186;51.394;5.454;2022-07-24T03:51:04;21.10;62.80
26821;DHT22;37186;51.394;5.454;2022-07-24T03:54:05;21.10;63.00
26821;DHT22;37186;51.394;5.454;2022-07-24T03:57:06;21.00;62.90
26821;DHT22;37186;51.394;5.454;2022-07-24T04:00:07;21.00;63.00
26821;DHT22;37186;51.394;5.454;2022-07-24T04:03:09;21.00;63.20
26821;DHT22;37186;51.394;5.454;2022-07-24T04:06:09;21.00;63.00
26821;DHT22;37186;51.394;5.454;2022-07-24T04:09:10;20.90;63.00
26821;DHT22;37186;51.394;5.454;2022-07-24T04:12:10;20.90;63.00
26821;DHT22;37186;51.394;5.454;2022-07-24T04:15:11;20.90;63.00
26821;DHT22;37186;51.394;5.454;2022-07-24T04:18:11;20.90;63.00
26821;DHT22;37186;51.394;5.454;2022-07-24T04:21:12;20.90;63.10
26821;DHT22;37186;51.394;5.454;2022-07-24T04:24:12;20.90;63.10
26821;DHT22;37186;51.394;5.454;2022-07-24T04:27:13;20.80;63.00
26821;DHT22;37186;51.394;5.454;2022-07-24T04:30:14;20.80;63.10
26821;DHT22;37186;51.394;5.454;2022-07-24T04:33:14;20.80;63.10
26821;DHT22;37186;51.394;5.454;2022-07-24T04:36:15;20.80;63.20
26821;DHT22;37186;51.394;5.454;2022-07-24T04:39:15;20.80;63.20
26821;DHT22;37186;51.394;5.454;2022-07-24T04:42:16;20.80;63.30
26821;DHT22;37186;51.394;5.454;2022-07-24T04:45:16;20.80;63.30
26821;DHT22;37186;51.394;5.454;2022-07-24T04:48:17;20.80;63.30
26821;DHT22;37186;51.394;5.454;2022-07-24T04:51:18;20.70;63.30
26821;DHT22;37186;51.394;5.454;2022-07-24T04:54:18;20.70;63.30
26821;DHT22;37186;51.394;5.454;2022-07-24T04:57:19;20.70;63.40
26821;DHT22;37186;51.394;5.454;2022-07-24T05:00:20;20.70;63.30
26821;DHT22;37186;51.394;5.454;2022-07-24T05:03:21;20.60;63.50
26821;DHT22;37186;51.394;5.454;2022-07-24T05:06:21;20.70;63.60
26821;DHT22;37186;51.394;5.454;2022-07-24T05:09:22;20.60;63.30
26821;DHT22;37186;51.394;5.454;2022-07-24T05:12:23;20.60;63.50
26821;DHT22;37186;51.394;5.454;2022-07-24T05:15:23;20.60;63.30
26821;DHT22;37186;51.394;5.454;2022-07-24T05:18:24;20.60;63.50
26821;DHT22;37186;51.394;5.454;2022-07-24T05:21:24;20.60;63.40
26821;DHT22;37186;51.394;5.454;2022-07-24T05:24:25;20.60;63.60
26821;DHT22;37186;51.394;5.454;2022-07-24T05:27:25;20.60;63.60
26821;DHT22;37186;51.394;5.454;2022-07-24T05:30:26;20.60;63.50
26821;DHT22;37186;51.394;5.454;2022-07-24T05:33:27;20.60;63.60
26821;DHT22;37186;51.394;5.454;2022-07-24T05:36:27;20.60;63.70
26821;DHT22;37186;51.394;5.454;2022-07-24T05:39:28;20.60;63.60
26821;DHT22;37186;51.394;5.454;2022-07-24T05:42:29;20.60;63.50
26821;DHT22;37186;51.394;5.454;2022-07-24T05:45:29;20.60;63.80
26821;DHT22;37186;51.394;5.454;2022-07-24T05:48:30;20.60;63.60
26821;DHT22;37186;51.394;5.454;2022-07-24T05:51:32;20.60;63.70
26821;DHT22;37186;51.394;5.454;2022-07-24T05:54:32;20.70;64.00
26821;DHT22;37186;51.394;5.454;2022-07-24T05:57:33;20.70;63.70
26821;DHT22;37186;51.394;5.454;2022-07-24T06:00:34;20.70;63.70
26821;DHT22;37186;51.394;5.454;2022-07-24T06:03:35;20.70;63.70
26821;DHT22;37186;51.394;5.454;2022-07-24T06:06:37;20.70;63.70
26821;DHT22;37186;51.394;5.454;2022-07-24T06:09:37;20.70;63.80
26821;DHT22;37186;51.394;5.454;2022-07-24T06:12:38;20.70;63.70
26821;DHT22;37186;51.394;5.454;2022-07-24T06:15:39;20.70;63.70
26821;DHT22;37186;51.394;5.454;2022-07-24T06:18:39;20.70;63.70
26821;DHT22;37186;51.394;5.454;2022-07-24T06:21:40;20.80;64.00
26821;DHT22;37186;51.394;5.454;2022-07-24T06:24:40;20.80;63.70
26821;DHT22;37186;51.394;5.454;2022-07-24T06:27:42;20.80;63.70
26821;DHT22;37186;51.394;5.454;2022-07-24T06:30:43;20.80;63.70
26821;DHT22;37186;51.394;5.454;2022-07-24T06:33:43;20.80;64.00
26821;DHT22;37186;51.394;5.454;2022-07-24T06:36:44;20.90;64.00
26821;DHT22;37186;51.394;5.454;2022-07-24T06:39:44;20.90;63.80
26821;DHT22;37186;51.394;5.454;2022-07-24T06:42:46;20.90;63.90
26821;DHT22;37186;51.394;5.454;2022-07-24T06:45:47;20.90;63.80
26821;DHT22;37186;51.394;5.454;2022-07-24T06:48:48;21.00;63.80
26821;DHT22;37186;51.394;5.454;2022-07-24T06:51:49;21.00;64.00
26821;DHT22;37186;51.394;5.454;2022-07-24T06:54:49;21.00;63.90
26821;DHT22;37186;51.394;5.454;2022-07-24T06:57:50;21.00;64.00
26821;DHT22;37186;51.394;5.454;2022-07-24T07:00:51;21.10;64.00
26821;DHT22;37186;51.394;5.454;2022-07-24T07:03:52;21.10;64.00
26821;DHT22;37186;51.394;5.454;2022-07-24T07:06:53;21.10;64.20
26821;DHT22;37186;51.394;5.454;2022-07-24T07:09:54;21.10;63.90
26821;DHT22;37186;51.394;5.454;2022-07-24T07:12:54;21.20;64.00
26821;DHT22;37186;51.394;5.454;2022-07-24T07:15:55;21.20;64.00
26821;DHT22;37186;51.394;5.454;2022-07-24T07:18:55;21.20;63.90
26821;DHT22;37186;51.394;5.454;2022-07-24T07:21:56;21.30;64.00
26821;DHT22;37186;51.394;5.454;2022-07-24T07:24:58;21.30;64.00
26821;DHT22;37186;51.394;5.454;2022-07-24T07:27:58;21.30;64.10
26821;DHT22;37186;51.394;5.454;2022-07-24T07:30:59;21.30;64.00
26821;DHT22;37186;51.394;5.454;2022-07-24T07:34:00;21.40;64.10
26821;DHT22;37186;51.394;5.454;2022-07-24T07:37:00;21.40;64.20
26821;DHT22;37186;51.394;5.454;2022-07-24T07:40:01;21.40;64.00
26821;DHT22;37186;51.394;5.454;2022-07-24T07:43:01;21.40;64.00
26821;DHT22;37186;51.394;5.454;2022-07-24T07:46:02;21.50;64.20
26821;DHT22;37186;51.394;5.454;2022-07-24T07:49:03;21.50;64.00
26821;DHT22;37186;51.394;5.454;2022-07-24T07:52:03;21.50;63.90
26821;DHT22;37186;51.394;5.454;2022-07-24T07:55:05;21.60;64.00
26821;DHT22;37186;51.394;5.454;2022-07-24T07:58:05;21.60;63.90
26821;DHT22;37186;51.394;5.454;2022-07-24T08:01:06;21.60;63.90
26821;DHT22;37186;51.394;5.454;2022-07-24T08:04:06;21.60;63.90
26821;DHT22;37186;51.394;5.454;2022-07-24T08:07:07;21.70;64.10
26821;DHT22;37186;51.394;5.454;2022-07-24T08:10:08;21.70;64.00
26821;DHT22;37186;51.394;5.454;2022-07-24T08:13:08;21.70;63.80
26821;DHT22;37186;51.394;5.454;2022-07-24T08:16:09;21.70;63.80
26821;DHT22;37186;51.394;5.454;2022-07-24T08:19:09;21.80;64.00
26821;DHT22;37186;51.394;5.454;2022-07-24T08:22:10;21.80;64.00
26821;DHT22;37186;51.394;5.454;2022-07-24T08:25:10;21.80;64.00
26821;DHT22;37186;51.394;5.454;2022-07-24T08:28:11;21.90;64.10
26821;DHT22;37186;51.394;5.454;2022-07-24T08:31:12;21.90;64.00
26821;DHT22;37186;51.394;5.454;2022-07-24T08:34:13;21.90;64.00
26821;DHT22;37186;51.394;5.454;2022-07-24T08:37:14;22.00;64.00
26821;DHT22;37186;51.394;5.454;2022-07-24T08:40:15;22.00;63.90
26821;DHT22;37186;51.394;5.454;2022-07-24T08:43:15;22.00;63.80
26821;DHT22;37186;51.394;5.454;2022-07-24T08:46:16;22.10;63.80
26821;DHT22;37186;51.394;5.454;2022-07-24T08:49:16;22.10;63.80
26821;DHT22;37186;51.394;5.454;2022-07-24T08:52:21;22.10;63.80
26821;DHT22;37186;51.394;5.454;2022-07-24T08:55:22;22.20;63.80
26821;DHT22;37186;51.394;5.454;2022-07-24T08:58:23;22.20;63.80
26821;DHT22;37186;51.394;5.454;2022-07-24T09:01:24;22.20;63.80
26821;DHT22;37186;51.394;5.454;2022-07-24T09:07:32;22.30;63.80
26821;DHT22;37186;51.394;5.454;2022-07-24T09:10:33;22.30;63.70
26821;DHT22;37186;51.394;5.454;2022-07-24T09:13:35;22.40;63.80
26821;DHT22;37186;51.394;5.454;2022-07-24T09:17:13;22.40;63.80
26821;DHT22;37186;51.394;5.454;2022-07-24T09:20:14;22.50;63.80
26821;DHT22;37186;51.394;5.454;2022-07-24T09:23:19;22.50;63.80
26821;DHT22;37186;51.394;5.454;2022-07-24T09:26:19;22.50;63.80
26821;DHT22;37186;51.394;5.454;2022-07-24T09:29:21;22.60;63.80
26821;DHT22;37186;51.394;5.454;2022-07-24T09:32:22;22.60;63.80
26821;DHT22;37186;51.394;5.454;2022-07-24T09:35:31;22.70;63.80
26821;DHT22;37186;51.394;5.454;2022-07-24T09:38:32;22.70;63.80
26821;DHT22;37186;51.394;5.454;2022-07-24T09:41:32;22.70;63.80
26821;DHT22;37186;51.394;5.454;2022-07-24T09:44:57;22.80;63.90
26821;DHT22;37186;51.394;5.454;2022-07-24T09:47:57;22.80;64.60
26821;DHT22;37186;51.394;5.454;2022-07-24T09:51:10;22.90;64.00
26821;DHT22;37186;51.394;5.454;2022-07-24T09:54:10;23.00;64.00
26821;DHT22;37186;51.394;5.454;2022-07-24T09:57:24;23.10;64.10
26821;DHT22;37186;51.394;5.454;2022-07-24T10:00:25;23.10;64.10
26821;DHT22;37186;51.394;5.454;2022-07-24T10:03:31;23.20;64.20
26821;DHT22;37186;51.394;5.454;2022-07-24T10:06:36;23.20;64.10
26821;DHT22;37186;51.394;5.454;2022-07-24T10:09:41;23.30;64.00
26821;DHT22;37186;51.394;5.454;2022-07-24T10:12:44;23.40;64.10
26821;DHT22;37186;51.394;5.454;2022-07-24T10:19:01;23.50;64.10
26821;DHT22;37186;51.394;5.454;2022-07-24T10:22:09;23.60;64.10
26821;DHT22;37186;51.394;5.454;2022-07-24T10:25:13;23.60;64.00
26821;DHT22;37186;51.394;5.454;2022-07-24T10:28:34;23.70;64.00
26821;DHT22;37186;51.394;5.454;2022-07-24T10:31:38;23.80;64.00
26821;DHT22;37186;51.394;5.454;2022-07-24T10:38:12;23.90;64.00
26821;DHT22;37186;51.394;5.454;2022-07-24T10:41:22;24.00;64.00
26821;DHT22;37186;51.394;5.454;2022-07-24T10:44:23;24.10;64.20
26821;DHT22;37186;51.394;5.454;2022-07-24T10:47:26;24.10;64.00
26821;DHT22;37186;51.394;5.454;2022-07-24T10:53:59;24.20;63.90
26821;DHT22;37186;51.394;5.454;2022-07-24T10:57:00;24.30;63.80
26821;DHT22;37186;51.394;5.454;2022-07-24T11:00:24;24.30;63.80
26821;DHT22;37186;51.394;5.454;2022-07-24T11:03:29;24.40;63.80
26821;DHT22;37186;51.394;5.454;2022-07-24T11:06:44;24.50;63.80
26821;DHT22;37186;51.394;5.454;2022-07-24T11:10:04;24.50;63.80
26821;DHT22;37186;51.394;5.454;2022-07-24T11:16:35;24.70;63.70
26821;DHT22;37186;51.394;5.454;2022-07-24T11:19:36;24.70;63.70
26821;DHT22;37186;51.394;5.454;2022-07-24T11:22:48;24.80;63.70
26821;DHT22;37186;51.394;5.454;2022-07-24T11:25:49;24.90;63.60
26821;DHT22;37186;51.394;5.454;2022-07-24T11:32:15;25.00;63.80
26821;DHT22;37186;51.394;5.454;2022-07-24T11:35:27;25.00;63.70
26821;DHT22;37186;51.394;5.454;2022-07-24T11:38:28;25.10;63.70
26821;DHT22;37186;51.394;5.454;2022-07-24T11:41:46;25.20;63.80
26821;DHT22;37186;51.394;5.454;2022-07-24T11:44:50;25.20;63.70
26821;DHT22;37186;51.394;5.454;2022-07-24T11:47:51;25.30;63.50
26821;DHT22;37186;51.394;5.454;2022-07-24T11:51:05;25.30;63.50
26821;DHT22;37186;51.394;5.454;2022-07-24T11:54:05;25.40;63.30
26821;DHT22;37186;51.394;5.454;2022-07-24T11:57:16;25.40;63.40
26821;DHT22;37186;51.394;5.454;2022-07-24T12:00:21;25.50;63.50
26821;DHT22;37186;51.394;5.454;2022-07-24T12:03:23;25.60;63.50
26821;DHT22;37186;51.394;5.454;2022-07-24T12:06:28;25.70;63.50
26821;DHT22;37186;51.394;5.454;2022-07-24T12:09:28;25.70;63.40
26821;DHT22;37186;51.394;5.454;2022-07-24T12:12:31;25.80;63.60
26821;DHT22;37186;51.394;5.454;2022-07-24T12:15:33;25.90;63.70
26821;DHT22;37186;51.394;5.454;2022-07-24T12:18:37;26.00;63.50
26821;DHT22;37186;51.394;5.454;2022-07-24T12:21:38;26.00;63.40
26821;DHT22;37186;51.394;5.454;2022-07-24T12:24:39;26.10;63.20
26821;DHT22;37186;51.394;5.454;2022-07-24T12:27:41;26.10;63.30
26821;DHT22;37186;51.394;5.454;2022-07-24T12:30:49;26.20;63.30
26821;DHT22;37186;51.394;5.454;2022-07-24T12:33:54;26.30;63.60
26821;DHT22;37186;51.394;5.454;2022-07-24T12:36:55;26.40;63.50
26821;DHT22;37186;51.394;5.454;2022-07-24T12:39:55;26.50;63.70
26821;DHT22;37186;51.394;5.454;2022-07-24T12:43:02;26.50;63.60
26821;DHT22;37186;51.394;5.454;2022-07-24T12:46:10;26.60;63.70
26821;DHT22;37186;51.394;5.454;2022-07-24T12:49:12;26.70;63.40
26821;DHT22;37186;51.394;5.454;2022-07-24T12:52:21;26.70;63.40
26821;DHT22;37186;51.394;5.454;2022-07-24T12:55:24;26.80;63.70
26821;DHT22;37186;51.394;5.454;2022-07-24T12:58:24;26.90;63.20
26821;DHT22;37186;51.394;5.454;2022-07-24T13:01:43;27.00;63.40
26821;DHT22;37186;51.394;5.454;2022-07-24T13:04:51;27.10;63.40
26821;DHT22;37186;51.394;5.454;2022-07-24T13:07:52;27.20;63.50
26821;DHT22;37186;51.394;5.454;2022-07-24T13:10:53;27.20;63.40
26821;DHT22;37186;51.394;5.454;2022-07-24T13:13:53;27.30;63.60
26821;DHT22;37186;51.394;5.454;2022-07-24T13:16:54;27.40;63.50
26821;DHT22;37186;51.394;5.454;2022-07-24T13:19:54;27.40;62.90
26821;DHT22;37186;51.394;5.454;2022-07-24T13:22:55;27.50;62.70
26821;DHT22;37186;51.394;5.454;2022-07-24T13:25:55;27.50;61.90
26821;DHT22;37186;51.394;5.454;2022-07-24T13:28:56;27.60;62.60
26821;DHT22;37186;51.394;5.454;2022-07-24T13:31:57;27.60;62.70
26821;DHT22;37186;51.394;5.454;2022-07-24T13:34:57;27.70;62.20
26821;DHT22;37186;51.394;5.454;2022-07-24T13:37:58;27.80;62.70
26821;DHT22;37186;51.394;5.454;2022-07-24T13:40:59;27.90;63.00
26821;DHT22;37186;51.394;5.454;2022-07-24T13:44:00;27.90;62.80
26821;DHT22;37186;51.394;5.454;2022-07-24T13:47:01;28.00;63.10
26821;DHT22;37186;51.394;5.454;2022-07-24T13:50:02;28.10;63.00
26821;DHT22;37186;51.394;5.454;2022-07-24T13:53:03;28.20;62.70
26821;DHT22;37186;51.394;5.454;2022-07-24T13:56:08;28.20;62.20
26821;DHT22;37186;51.394;5.454;2022-07-24T13:59:08;28.30;62.70
26821;DHT22;37186;51.394;5.454;2022-07-24T14:02:09;28.40;62.70
26821;DHT22;37186;51.394;5.454;2022-07-24T14:05:09;28.50;62.20
26821;DHT22;37186;51.394;5.454;2022-07-24T14:08:10;28.60;62.30
26821;DHT22;37186;51.394;5.454;2022-07-24T14:11:10;28.60;62.60
26821;DHT22;37186;51.394;5.454;2022-07-24T14:14:11;28.70;62.70
26821;DHT22;37186;51.394;5.454;2022-07-24T14:17:12;28.80;62.30
26821;DHT22;37186;51.394;5.454;2022-07-24T14:20:13;28.90;62.80
26821;DHT22;37186;51.394;5.454;2022-07-24T14:23:13;29.00;62.90
26821;DHT22;37186;51.394;5.454;2022-07-24T14:26:14;29.10;62.70
26821;DHT22;37186;51.394;5.454;2022-07-24T14:29:14;29.10;62.70
26821;DHT22;37186;51.394;5.454;2022-07-24T14:32:15;29.20;62.90
26821;DHT22;37186;51.394;5.454;2022-07-24T14:35:16;29.40;63.00
26821;DHT22;37186;51.394;5.454;2022-07-24T14:38:16;29.40;63.10
26821;DHT22;37186;51.394;5.454;2022-07-24T14:41:17;29.50;62.50
26821;DHT22;37186;51.394;5.454;2022-07-24T14:44:17;29.60;62.80
26821;DHT22;37186;51.394;5.454;2022-07-24T14:47:17;29.70;62.40
26821;DHT22;37186;51.394;5.454;2022-07-24T14:50:18;29.80;62.30
26821;DHT22;37186;51.394;5.454;2022-07-24T14:53:19;29.90;62.70
26821;DHT22;37186;51.394;5.454;2022-07-24T14:56:19;30.10;62.80
26821;DHT22;37186;51.394;5.454;2022-07-24T14:59:20;30.10;62.70
26821;DHT22;37186;51.394;5.454;2022-07-24T15:02:20;30.30;62.60
26821;DHT22;37186;51.394;5.454;2022-07-24T15:05:21;30.40;62.30
26821;DHT22;37186;51.394;5.454;2022-07-24T15:08:21;30.60;61.90
26821;DHT22;37186;51.394;5.454;2022-07-24T15:11:22;30.70;61.70
26821;DHT22;37186;51.394;5.454;2022-07-24T15:14:25;30.90;61.30
26821;DHT22;37186;51.394;5.454;2022-07-24T15:17:26;31.00;62.20
26821;DHT22;37186;51.394;5.454;2022-07-24T15:20:26;31.20;62.40
26821;DHT22;37186;51.394;5.454;2022-07-24T15:23:27;31.40;62.20
26821;DHT22;37186;51.394;5.454;2022-07-24T15:26:27;31.50;62.20
26821;DHT22;37186;51.394;5.454;2022-07-24T15:29:28;31.70;62.20
26821;DHT22;37186;51.394;5.454;2022-07-24T15:32:30;31.90;60.80
26821;DHT22;37186;51.394;5.454;2022-07-24T15:35:31;31.90;61.20
26821;DHT22;37186;51.394;5.454;2022-07-24T15:38:31;31.90;60.80
26821;DHT22;37186;51.394;5.454;2022-07-24T15:41:32;32.00;60.00
26821;DHT22;37186;51.394;5.454;2022-07-24T15:44:32;32.00;60.30
26821;DHT22;37186;51.394;5.454;2022-07-24T15:47:33;32.00;60.10
26821;DHT22;37186;51.394;5.454;2022-07-24T15:50:34;32.00;59.80
26821;DHT22;37186;51.394;5.454;2022-07-24T15:53:34;32.10;59.00
26821;DHT22;37186;51.394;5.454;2022-07-24T15:56:35;32.00;59.70
26821;DHT22;37186;51.394;5.454;2022-07-24T15:59:36;32.00;59.50
26821;DHT22;37186;51.394;5.454;2022-07-24T16:02:36;31.90;59.20
26821;DHT22;37186;51.394;5.454;2022-07-24T16:05:37;31.90;59.30
26821;DHT22;37186;51.394;5.454;2022-07-24T16:08:37;31.90;59.40
26821;DHT22;37186;51.394;5.454;2022-07-24T16:11:39;31.80;59.10
26821;DHT22;37186;51.394;5.454;2022-07-24T16:14:39;31.80;59.30
26821;DHT22;37186;51.394;5.454;2022-07-24T16:17:41;31.70;59.20
26821;DHT22;37186;51.394;5.454;2022-07-24T16:20:41;31.70;58.90
26821;DHT22;37186;51.394;5.454;2022-07-24T16:23:42;31.70;58.90
26821;DHT22;37186;51.394;5.454;2022-07-24T16:26:44;31.60;58.60
26821;DHT22;37186;51.394;5.454;2022-07-24T16:29:44;31.60;58.90
26821;DHT22;37186;51.394;5.454;2022-07-24T16:32:45;31.50;58.60
26821;DHT22;37186;51.394;5.454;2022-07-24T16:35:45;31.50;58.80
26821;DHT22;37186;51.394;5.454;2022-07-24T16:38:46;31.40;58.80
26821;DHT22;37186;51.394;5.454;2022-07-24T16:41:46;31.40;58.80
26821;DHT22;37186;51.394;5.454;2022-07-24T16:44:47;31.30;58.60
26821;DHT22;37186;51.394;5.454;2022-07-24T16:47:47;31.30;58.80
26821;DHT22;37186;51.394;5.454;2022-07-24T16:50:48;31.30;59.20
26821;DHT22;37186;51.394;5.454;2022-07-24T16:53:48;31.30;58.90
26821;DHT22;37186;51.394;5.454;2022-07-24T16:56:49;31.30;59.20
26821;DHT22;37186;51.394;5.454;2022-07-24T16:59:50;31.30;58.90
26821;DHT22;37186;51.394;5.454;2022-07-24T17:02:50;31.40;59.90
26821;DHT22;37186;51.394;5.454;2022-07-24T17:05:51;31.50;61.00
26821;DHT22;37186;51.394;5.454;2022-07-24T17:08:51;31.60;61.90
26821;DHT22;37186;51.394;5.454;2022-07-24T17:11:52;31.90;62.00
26821;DHT22;37186;51.394;5.454;2022-07-24T17:14:54;32.00;62.50
26821;DHT22;37186;51.394;5.454;2022-07-24T17:17:55;32.10;61.80
26821;DHT22;37186;51.394;5.454;2022-07-24T17:20:58;32.20;61.60
26821;DHT22;37186;51.394;5.454;2022-07-24T17:23:59;32.20;61.20
26821;DHT22;37186;51.394;5.454;2022-07-24T17:26:59;32.20;59.90
26821;DHT22;37186;51.394;5.454;2022-07-24T17:30:00;32.30;60.50
26821;DHT22;37186;51.394;5.454;2022-07-24T17:33:02;32.30;60.50
26821;DHT22;37186;51.394;5.454;2022-07-24T17:36:04;32.20;60.00
26821;DHT22;37186;51.394;5.454;2022-07-24T17:39:05;32.30;60.40
26821;DHT22;37186;51.394;5.454;2022-07-24T17:42:05;32.40;60.40
26821;DHT22;37186;51.394;5.454;2022-07-24T17:45:06;32.40;60.60
26821;DHT22;37186;51.394;5.454;2022-07-24T17:48:07;32.50;60.50
26821;DHT22;37186;51.394;5.454;2022-07-24T17:51:08;32.50;61.10
26821;DHT22;37186;51.394;5.454;2022-07-24T17:54:08;32.60;61.10
26821;DHT22;37186;51.394;5.454;2022-07-24T17:57:09;32.70;61.20
26821;DHT22;37186;51.394;5.454;2022-07-24T18:00:10;32.70;61.20
26821;DHT22;37186;51.394;5.454;2022-07-24T18:03:12;32.80;61.20
26821;DHT22;37186;51.394;5.454;2022-07-24T18:06:13;32.90;61.10
26821;DHT22;37186;51.394;5.454;2022-07-24T18:09:14;32.90;61.20
26821;DHT22;37186;51.394;5.454;2022-07-24T18:12:14;32.90;61.00
26821;DHT22;37186;51.394;5.454;2022-07-24T18:15:15;32.90;60.60
26821;DHT22;37186;51.394;5.454;2022-07-24T18:18:15;32.90;60.40
26821;DHT22;37186;51.394;5.454;2022-07-24T18:21:16;32.90;60.40
26821;DHT22;37186;51.394;5.454;2022-07-24T18:24:17;32.80;60.10
26821;DHT22;37186;51.394;5.454;2022-07-24T18:27:17;32.80;59.90
26821;DHT22;37186;51.394;5.454;2022-07-24T18:30:19;32.70;59.70
26821;DHT22;37186;51.394;5.454;2022-07-24T18:33:20;32.60;59.50
26821;DHT22;37186;51.394;5.454;2022-07-24T18:36:20;32.60;59.40
26821;DHT22;37186;51.394;5.454;2022-07-24T18:39:21;32.50;59.20
26821;DHT22;37186;51.394;5.454;2022-07-24T18:42:21;32.40;59.20
26821;DHT22;37186;51.394;5.454;2022-07-24T18:45:22;32.30;59.10
26821;DHT22;37186;51.394;5.454;2022-07-24T18:48:22;32.20;58.90
26821;DHT22;37186;51.394;5.454;2022-07-24T18:51:23;32.10;58.90
26821;DHT22;37186;51.394;5.454;2022-07-24T18:54:23;32.00;58.80
26821;DHT22;37186;51.394;5.454;2022-07-24T18:57:24;31.90;58.80
26821;DHT22;37186;51.394;5.454;2022-07-24T19:00:24;31.90;58.90
26821;DHT22;37186;51.394;5.454;2022-07-24T19:03:25;31.80;58.90
26821;DHT22;37186;51.394;5.454;2022-07-24T19:06:27;31.70;58.90
26821;DHT22;37186;51.394;5.454;2022-07-24T19:09:28;31.60;58.80
26821;DHT22;37186;51.394;5.454;2022-07-24T19:12:31;31.60;58.80
26821;DHT22;37186;51.394;5.454;2022-07-24T19:15:32;31.50;58.80
26821;DHT22;37186;51.394;5.454;2022-07-24T19:18:32;31.40;58.80
26821;DHT22;37186;51.394;5.454;2022-07-24T19:21:34;31.30;58.80
26821;DHT22;37186;51.394;5.454;2022-07-24T19:24:34;31.20;58.80
26821;DHT22;37186;51.394;5.454;2022-07-24T19:27:35;31.10;58.70